Time,TemperatureF,DewpointF,PressureIn,WindDirection,WindDirectionDegrees,WindSpeedMPH,WindSpeedGustMPH,Humidity,HourlyPrecipIn,Conditions,Clouds,dailyrainin,SolarRadiationWatts/m^2,SoftwareType,DateUTC
2013-02-03 00:11:00,19.4,14.0,30.01,NNE,32,0.0,0.0,79,0.00,,OVC100,0.00,0.00,VWS V14.01,2013-02-03 05:11:00,
2013-02-03 00:21:00,19.2,13.5,30.01,NNE,32,0.0,1.0,78,0.00,,OVC100,0.00,0.00,VWS V14.01,2013-02-03 05:21:00,
2013-02-03 00:31:00,19.2,13.8,30.01,NNE,32,0.0,2.0,79,0.00,,OVC100,0.00,0.00,VWS V14.01,2013-02-03 05:31:00,
2013-02-03 00:41:00,19.2,13.8,30.01,NNE,32,1.0,2.0,79,0.00,,OVC090,0.00,0.00,VWS V14.01,2013-02-03 05:41:00,
2013-02-03 00:51:00,19.2,13.8,30.01,NNE,32,1.0,2.0,79,0.00,,OVC090,0.00,0.00,VWS V14.01,2013-02-03 05:51:00,
2013-02-03 01:01:00,19.2,14.1,30.01,NNE,32,0.0,2.0,80,0.00,,OVC090,0.00,0.00,VWS V14.01,2013-02-03 06:01:00,
2013-02-03 01:11:00,19.2,13.8,30.01,NNE,32,0.0,2.0,79,0.00,,OVC100,0.00,0.00,VWS V14.01,2013-02-03 06:11:00,
2013-02-03 01:21:00,19.1,14.0,30.01,NNE,32,1.0,2.0,80,0.00,,OVC100,0.00,0.00,VWS V14.01,2013-02-03 06:21:00,
2013-02-03 01:31:00,19.1,13.7,30.01,NNE,32,1.0,3.0,79,0.00,,OVC100,0.00,0.00,VWS V14.01,2013-02-03 06:31:00,
2013-02-03 01:41:00,19.1,13.7,30.01,NNE,32,1.0,2.0,79,0.00,,OVC100,0.00,0.00,VWS V14.01,2013-02-03 06:41:00,
2013-02-03 01:51:00,19.1,13.7,30.01,NNE,32,0.0,2.0,79,0.00,,OVC100,0.00,0.00,VWS V14.01,2013-02-03 06:51:00,
2013-02-03 02:01:00,19.1,13.7,30.01,NNE,32,0.0,1.0,79,0.00,,OVC100,0.00,0.00,VWS V14.01,2013-02-03 07:01:00,
2013-02-03 02:11:00,19.1,13.7,30.01,NNE,32,0.0,0.0,79,0.00,,OVC100,0.00,0.00,VWS V14.01,2013-02-03 07:11:00,
2013-02-03 02:21:00,18.9,13.8,30.00,NNE,32,1.0,2.0,80,0.00,,OVC100,0.00,0.00,VWS V14.01,2013-02-03 07:21:00,
2013-02-03 02:31:00,18.8,13.7,29.99,NNE,32,0.0,1.0,80,0.00,,OVC100,0.00,0.00,VWS V14.01,2013-02-03 07:31:00,
2013-02-03 02:41:00,18.8,13.7,29.99,NNE,32,0.0,0.0,80,0.00,,OVC100,0.00,0.00,VWS V14.01,2013-02-03 07:41:00,
2013-02-03 02:51:00,18.9,14.0,29.99,NNE,32,0.0,3.0,81,0.00,,OVC100,0.00,0.00,VWS V14.01,2013-02-03 07:51:00,
2013-02-03 03:01:00,18.9,14.0,29.99,NNE,32,0.0,3.0,81,0.00,,OVC100,0.00,0.00,VWS V14.01,2013-02-03 08:01:00,
2013-02-03 03:11:00,18.8,13.7,29.99,NNE,32,0.0,2.0,80,0.00,,OVC100,0.00,0.00,VWS V14.01,2013-02-03 08:11:00,
2013-02-03 03:21:00,18.9,13.8,29.98,NNE,32,1.0,4.0,80,0.00,,OVC100,0.00,0.00,VWS V14.01,2013-02-03 08:21:00,
2013-02-03 03:31:00,18.9,13.8,29.98,NNE,32,2.0,4.0,80,0.00,,OVC100,0.00,0.00,VWS V14.01,2013-02-03 08:31:00,
2013-02-03 03:41:00,18.9,13.5,29.98,NNE,32,0.0,2.0,79,0.00,,OVC100,0.00,0.00,VWS V14.01,2013-02-03 08:41:00,
2013-02-03 03:51:00,18.9,13.5,29.98,NNE,32,2.0,3.0,79,0.00,,OVC100,0.00,0.00,VWS V14.01,2013-02-03 08:51:00,
2013-02-03 04:01:00,18.9,13.8,29.97,NNE,32,2.0,3.0,80,0.00,,OVC100,0.00,0.00,VWS V14.01,2013-02-03 09:01:00,
2013-02-03 04:11:00,18.9,14.0,29.97,NNE,32,0.0,3.0,81,0.00,,OVC090,0.00,0.00,VWS V14.01,2013-02-03 09:11:00,
2013-02-03 04:21:00,18.3,13.5,29.97,ENE,71,1.0,3.0,81,0.00,,OVC090,0.00,0.00,VWS V14.01,2013-02-03 09:21:00,
2013-02-03 04:31:00,17.8,13.5,29.96,ENE,71,0.0,3.0,83,0.00,,OVC090,0.00,0.00,VWS V14.01,2013-02-03 09:31:00,
2013-02-03 04:41:00,17.0,12.7,29.96,ENE,72,2.0,3.0,83,0.00,,OVC090,0.00,0.00,VWS V14.01,2013-02-03 09:41:00,
2013-02-03 04:51:00,16.4,12.4,29.96,ENE,72,1.0,3.0,84,0.00,,OVC090,0.00,0.00,VWS V14.01,2013-02-03 09:51:00,
2013-02-03 05:01:00,16.2,12.8,29.96,ENE,72,0.0,2.0,86,0.00,,OVC090,0.00,0.00,VWS V14.01,2013-02-03 10:01:00,
2013-02-03 05:11:00,15.9,12.5,29.96,NNW,330,2.0,3.0,86,0.00,,BKN090,0.00,0.00,VWS V14.01,2013-02-03 10:11:00,
2013-02-03 05:21:00,15.6,12.4,29.96,NNW,330,0.0,2.0,87,0.00,,BKN090,0.00,0.00,VWS V14.01,2013-02-03 10:21:00,
2013-02-03 05:31:00,15.9,13.0,29.96,NNW,330,0.0,0.0,88,0.00,,BKN090,0.00,0.00,VWS V14.01,2013-02-03 10:31:00,
2013-02-03 05:41:00,16.1,13.2,29.96,NNW,330,0.0,0.0,88,0.00,,FEW090,0.00,0.00,VWS V14.01,2013-02-03 10:41:00,
2013-02-03 05:51:00,16.1,13.2,29.96,NNW,330,0.0,0.0,88,0.00,,FEW090,0.00,0.00,VWS V14.01,2013-02-03 10:51:00,
2013-02-03 06:01:00,15.7,12.8,29.96,NNW,330,0.0,0.0,88,0.00,,FEW090,0.00,0.00,VWS V14.01,2013-02-03 11:01:00,
2013-02-03 06:11:00,15.4,12.7,29.96,NNW,330,0.0,0.0,89,0.00,,BKN090,0.00,0.00,VWS V14.01,2013-02-03 11:11:00,
2013-02-03 06:21:00,15.2,12.6,29.96,NNW,330,0.0,0.0,89,0.00,,BKN090,0.00,0.00,VWS V14.01,2013-02-03 11:21:00,
2013-02-03 06:31:00,14.9,12.2,29.96,NNW,330,0.0,0.0,89,0.00,,BKN090,0.00,0.00,VWS V14.01,2013-02-03 11:31:00,
2013-02-03 06:41:00,14.8,12.4,29.96,NNW,330,0.0,0.0,90,0.00,,OVC080,0.00,0.00,VWS V14.01,2013-02-03 11:41:00,
2013-02-03 06:51:00,14.6,12.2,29.96,NNW,330,0.0,0.0,90,0.00,,OVC080,0.00,0.00,VWS V14.01,2013-02-03 11:51:00,
2013-02-03 07:11:00,14.0,11.4,29.97,NNW,330,0.0,2.0,89,0.00,,OVC080,0.00,5.00,VWS V14.01,2013-02-03 12:11:00,
2013-02-03 07:21:00,14.1,11.5,29.97,NNW,330,0.0,0.0,89,0.00,,OVC080,0.00,11.00,VWS V14.01,2013-02-03 12:21:00,
2013-02-03 07:31:00,14.4,12.0,29.97,NNW,330,0.0,0.0,90,0.00,,OVC080,0.00,12.00,VWS V14.01,2013-02-03 12:31:00,
2013-02-03 07:41:00,14.3,11.7,29.97,NNW,330,0.0,0.0,89,0.00,,SCT080,0.00,14.00,VWS V14.01,2013-02-03 12:41:00,
2013-02-03 07:51:00,14.4,11.8,29.97,NNW,330,0.0,0.0,89,0.00,,SCT080,0.00,18.00,VWS V14.01,2013-02-03 12:51:00,
2013-02-03 08:01:00,14.6,11.9,29.96,NNW,330,0.0,0.0,89,0.00,,SCT080,0.00,21.00,VWS V14.01,2013-02-03 13:01:00,
2013-02-03 08:11:00,14.6,11.9,29.96,NE,54,1.0,2.0,89,0.00,,SCT080,0.00,26.00,VWS V14.01,2013-02-03 13:11:00,
2013-02-03 08:21:00,15.4,13.0,29.97,East,85,2.0,3.0,90,0.00,,SCT080,0.00,26.00,VWS V14.01,2013-02-03 13:21:00,
2013-02-03 08:31:00,15.9,13.5,29.96,East,85,2.0,3.0,90,0.00,,SCT080,0.00,28.00,VWS V14.01,2013-02-03 13:31:00,
2013-02-03 08:41:00,16.4,14.0,29.96,East,85,2.0,3.0,90,0.00,,CLR,0.00,32.00,VWS V14.01,2013-02-03 13:41:00,
2013-02-03 08:51:00,16.7,14.3,29.96,ENE,66,2.0,3.0,90,0.00,,CLR,0.00,35.00,VWS V14.01,2013-02-03 13:51:00,
2013-02-03 09:01:00,17.0,14.6,29.97,NE,50,3.0,5.0,90,0.00,,CLR,0.00,40.00,VWS V14.01,2013-02-03 14:01:00,
2013-02-03 09:11:00,17.5,14.8,29.97,ENE,67,2.0,5.0,89,0.00,,CLR,0.00,47.00,VWS V14.01,2013-02-03 14:11:00,
2013-02-03 09:21:00,18.1,14.1,29.96,NE,36,4.0,5.0,84,0.00,,CLR,0.00,65.00,VWS V14.01,2013-02-03 14:21:00,
2013-02-03 09:31:00,18.6,13.8,29.96,NNE,24,1.0,6.0,81,0.00,,CLR,0.00,114.00,VWS V14.01,2013-02-03 14:31:00,
2013-02-03 09:41:00,18.8,13.4,29.96,NE,34,1.0,6.0,79,0.00,,CLR,0.00,84.00,VWS V14.01,2013-02-03 14:41:00,
2013-02-03 09:51:00,19.2,13.2,29.96,NNE,29,5.0,6.0,77,0.00,,CLR,0.00,137.00,VWS V14.01,2013-02-03 14:51:00,
2013-02-03 10:01:00,19.9,13.3,29.95,NE,37,5.0,10.0,75,0.00,,CLR,0.00,149.00,VWS V14.01,2013-02-03 15:01:00,
2013-02-03 10:11:00,20.8,12.9,29.95,NE,44,6.0,13.0,71,0.00,,CLR,0.00,169.00,VWS V14.01,2013-02-03 15:11:00,
2013-02-03 10:21:00,21.4,12.2,29.94,ENE,65,10.0,12.0,67,0.00,,CLR,0.00,246.00,VWS V14.01,2013-02-03 15:21:00,
2013-02-03 10:31:00,21.9,11.6,29.94,East,97,5.0,12.0,64,0.00,,CLR,0.00,309.00,VWS V14.01,2013-02-03 15:31:00,
2013-02-03 10:41:00,22.1,11.4,29.94,ENE,72,10.0,12.0,63,0.00,,CLR,0.00,178.00,VWS V14.01,2013-02-03 15:41:00,
2013-02-03 10:51:00,21.8,11.2,29.93,ENE,72,4.0,15.0,63,0.00,,CLR,0.00,121.00,VWS V14.01,2013-02-03 15:51:00,
2013-02-03 11:01:00,21.8,11.5,29.92,ENE,73,4.0,10.0,64,0.00,,CLR,0.00,139.00,VWS V14.01,2013-02-03 16:01:00,
2013-02-03 11:11:00,22.2,11.5,29.92,NE,49,10.0,12.0,63,0.00,,FEW023,0.00,128.00,VWS V14.01,2013-02-03 16:11:00,
2013-02-03 11:21:00,22.9,11.8,29.91,NE,45,5.0,13.0,62,0.00,,FEW023,0.00,225.00,VWS V14.01,2013-02-03 16:21:00,
2013-02-03 11:31:00,23.5,11.7,29.90,NE,40,7.0,13.0,60,0.00,,FEW023,0.00,162.00,VWS V14.01,2013-02-03 16:31:00,
2013-02-03 11:41:00,23.6,11.4,29.90,ENE,63,6.0,14.0,59,0.00,,SCT049,0.00,343.00,VWS V14.01,2013-02-03 16:41:00,
2013-02-03 11:51:00,23.5,10.9,29.89,ESE,110,2.0,10.0,58,0.00,,SCT049,0.00,162.00,VWS V14.01,2013-02-03 16:51:00,
2013-02-03 12:01:00,23.3,10.7,29.88,East,83,4.0,11.0,58,0.00,,SCT049,0.00,192.00,VWS V14.01,2013-02-03 17:01:00,
2013-02-03 12:11:00,24.1,11.5,29.88,NE,52,4.0,13.0,58,0.00,,BKN046,0.00,218.00,VWS V14.01,2013-02-03 17:11:00,
2013-02-03 12:21:00,24.1,11.1,29.87,NE,49,9.0,10.0,57,0.00,,BKN046,0.00,209.00,VWS V14.01,2013-02-03 17:21:00,
2013-02-03 12:31:00,24.1,11.5,29.86,NNE,33,5.0,11.0,58,0.00,,BKN046,0.00,223.00,VWS V14.01,2013-02-03 17:31:00,
2013-02-03 12:41:00,24.5,12.2,29.86,ESE,104,3.0,11.0,59,0.00,,BKN050,0.00,202.00,VWS V14.01,2013-02-03 17:41:00,
2013-02-03 12:51:00,24.5,11.1,29.85,ENE,57,6.0,6.0,56,0.00,,BKN050,0.00,176.00,VWS V14.01,2013-02-03 17:51:00,
2013-02-03 13:01:00,24.5,10.7,29.83,ENE,57,1.0,6.0,55,0.00,,BKN050,0.00,220.00,VWS V14.01,2013-02-03 18:01:00,
2013-02-03 13:11:00,24.8,10.9,29.83,East,84,3.0,7.0,55,0.00,,BKN050,0.00,248.00,VWS V14.01,2013-02-03 18:11:00,
2013-02-03 13:21:00,24.8,10.5,29.82,NE,41,4.0,5.0,54,0.00,,BKN050,0.00,227.00,VWS V14.01,2013-02-03 18:21:00,
2013-02-03 13:31:00,25.0,10.7,29.81,NNE,28,3.0,6.0,54,0.00,,BKN050,0.00,186.00,VWS V14.01,2013-02-03 18:31:00,
2013-02-03 13:41:00,25.0,11.5,29.81,NE,35,2.0,5.0,56,0.00,,BKN040,0.00,186.00,VWS V14.01,2013-02-03 18:41:00,
2013-02-03 13:51:00,25.3,11.0,29.80,ENE,70,2.0,5.0,54,0.00,,BKN040,0.00,251.00,VWS V14.01,2013-02-03 18:51:00,
2013-02-03 14:01:00,25.7,10.9,29.80,NE,36,1.0,5.0,53,0.00,,BKN040,0.00,276.00,VWS V14.01,2013-02-03 19:01:00,
2013-02-03 14:11:00,25.3,10.6,29.80,NE,48,3.0,5.0,53,0.00,,FEW040,0.00,144.00,VWS V14.01,2013-02-03 19:11:00,
2013-02-03 14:21:00,25.3,10.1,29.80,NE,48,0.0,3.0,52,0.00,,FEW040,0.00,151.00,VWS V14.01,2013-02-03 19:21:00,
2013-02-03 14:31:00,25.8,10.6,29.79,North,6,0.0,5.0,52,0.00,,FEW040,0.00,160.00,VWS V14.01,2013-02-03 19:31:00,
2013-02-03 14:41:00,26.3,11.1,29.79,North,7,3.0,4.0,52,0.00,,FEW038,0.00,160.00,VWS V14.01,2013-02-03 19:41:00,
2013-02-03 14:51:00,26.3,10.6,29.80,NNE,13,0.0,3.0,51,0.00,,FEW038,0.00,178.00,VWS V14.01,2013-02-03 19:51:00,
2013-02-03 15:01:00,26.0,10.8,29.79,NE,34,1.0,4.0,52,0.00,,FEW038,0.00,95.00,VWS V14.01,2013-02-03 20:01:00,
2013-02-03 15:11:00,26.0,11.2,29.79,NE,52,2.0,5.0,53,0.00,,BKN049,0.00,86.00,VWS V14.01,2013-02-03 20:11:00,
2013-02-03 15:21:00,26.0,10.8,29.78,NE,41,4.0,5.0,52,0.00,,BKN049,0.00,83.00,VWS V14.01,2013-02-03 20:21:00,
2013-02-03 15:31:00,25.8,10.2,29.78,ENE,68,0.0,4.0,51,0.00,,BKN049,0.00,95.00,VWS V14.01,2013-02-03 20:31:00,
2013-02-03 15:41:00,26.0,11.2,29.78,NE,56,2.0,4.0,53,0.00,,BKN060,0.00,93.00,VWS V14.01,2013-02-03 20:41:00,
2013-02-03 15:51:00,26.0,10.8,29.78,NE,56,0.0,3.0,52,0.00,,BKN060,0.00,88.00,VWS V14.01,2013-02-03 20:51:00,
2013-02-03 16:01:00,26.0,11.2,29.77,NE,56,3.0,3.0,53,0.00,,BKN060,0.00,60.00,VWS V14.01,2013-02-03 21:01:00,
2013-02-03 16:11:00,25.8,11.0,29.77,ENE,73,2.0,4.0,53,0.00,,BKN060,0.00,39.00,VWS V14.01,2013-02-03 21:11:00,
2013-02-03 16:21:00,25.6,10.9,29.77,ENE,73,0.0,3.0,53,0.00,,BKN060,0.00,33.00,VWS V14.01,2013-02-03 21:21:00,
2013-02-03 16:31:00,25.4,11.1,29.77,ENE,74,0.0,0.0,54,0.00,,BKN060,0.00,18.00,VWS V14.01,2013-02-03 21:31:00,
2013-02-03 16:41:00,25.4,11.1,29.77,ENE,74,0.0,0.0,54,0.00,,BKN070,0.00,12.00,VWS V14.01,2013-02-03 21:41:00,
2013-02-03 16:51:00,25.4,11.5,29.77,ENE,74,1.0,2.0,55,0.00,,BKN070,0.00,5.00,VWS V14.01,2013-02-03 21:51:00,
2013-02-03 17:01:00,25.3,11.4,29.76,ENE,74,0.0,1.0,55,0.00,,BKN070,0.00,0.00,VWS V14.01,2013-02-03 22:01:00,
2013-02-03 17:11:00,25.1,12.0,29.76,ENE,74,2.0,2.0,57,0.00,,BKN070,0.00,0.00,VWS V14.01,2013-02-03 22:11:00,
2013-02-03 17:21:00,25.1,11.6,29.75,ENE,74,0.0,2.0,56,0.00,,BKN070,0.00,0.00,VWS V14.01,2013-02-03 22:21:00,
2013-02-03 17:31:00,25.0,11.9,29.75,ENE,73,0.0,2.0,57,0.00,,BKN070,0.00,0.00,VWS V14.01,2013-02-03 22:31:00,
2013-02-03 17:41:00,25.0,11.9,29.75,ENE,73,0.0,2.0,57,0.00,,BKN055,0.00,0.00,VWS V14.01,2013-02-03 22:41:00,
2013-02-03 17:51:00,24.8,11.7,29.75,ENE,73,0.0,2.0,57,0.00,,BKN055,0.00,0.00,VWS V14.01,2013-02-03 22:51:00,
2013-02-03 18:01:00,24.8,12.5,29.74,ENE,74,0.0,2.0,59,0.00,,BKN055,0.00,0.00,VWS V14.01,2013-02-03 23:01:00,
2013-02-03 18:11:00,24.8,12.5,29.74,ENE,74,1.0,2.0,59,0.00,,OVC065,0.00,0.00,VWS V14.01,2013-02-03 23:11:00,
2013-02-03 18:21:00,24.7,13.2,29.74,ENE,74,0.0,1.0,61,0.00,,OVC065,0.00,0.00,VWS V14.01,2013-02-03 23:21:00,
2013-02-03 18:31:00,24.5,13.0,29.74,ENE,74,0.0,1.0,61,0.00,,OVC065,0.00,0.00,VWS V14.01,2013-02-03 23:31:00,
2013-02-03 18:41:00,24.7,12.4,29.74,ENE,74,0.0,3.0,59,0.00,,OVC065,0.00,0.00,VWS V14.01,2013-02-03 23:41:00,
2013-02-03 18:51:00,24.5,12.6,29.74,ENE,74,1.0,2.0,60,0.00,,OVC065,0.00,0.00,VWS V14.01,2013-02-03 23:51:00,
2013-02-03 19:01:00,24.4,12.5,29.74,ENE,74,1.0,2.0,60,0.00,,OVC065,0.00,0.00,VWS V14.01,2013-02-04 00:01:00,
2013-02-03 19:11:00,24.2,13.1,29.74,ENE,74,0.0,3.0,62,0.00,,OVC065,0.00,0.00,VWS V14.01,2013-02-04 00:11:00,
2013-02-03 19:21:00,24.2,13.4,29.75,ENE,74,2.0,2.0,63,0.00,,OVC065,0.00,0.00,VWS V14.01,2013-02-04 00:21:00,
2013-02-03 19:31:00,24.2,13.1,29.75,ENE,73,0.0,2.0,62,0.00,,OVC065,0.00,0.00,VWS V14.01,2013-02-04 00:31:00,
2013-02-03 19:41:00,24.4,13.6,29.75,ENE,74,0.0,2.0,63,0.00,,BKN065,0.00,0.00,VWS V14.01,2013-02-04 00:41:00,
2013-02-03 19:51:00,24.2,13.4,29.75,ENE,74,0.0,2.0,63,0.00,,BKN065,0.00,0.00,VWS V14.01,2013-02-04 00:51:00,
2013-02-03 20:01:00,24.2,13.8,29.75,ENE,74,0.0,2.0,64,0.00,,BKN065,0.00,0.00,VWS V14.01,2013-02-04 01:01:00,
2013-02-03 20:11:00,24.2,13.4,29.75,ENE,74,0.0,1.0,63,0.00,,OVC050,0.00,0.00,VWS V14.01,2013-02-04 01:11:00,
2013-02-03 20:21:00,24.2,13.1,29.75,ENE,74,0.0,1.0,62,0.00,,OVC050,0.00,0.00,VWS V14.01,2013-02-04 01:21:00,
2013-02-03 20:31:00,24.2,13.8,29.75,ENE,73,0.0,0.0,64,0.00,,OVC050,0.00,0.00,VWS V14.01,2013-02-04 01:31:00,
2013-02-03 20:41:00,24.1,14.1,29.75,ENE,74,0.0,2.0,65,0.00,,OVC034,0.00,0.00,VWS V14.01,2013-02-04 01:41:00,
2013-02-03 20:51:00,23.9,14.2,29.75,ENE,74,1.0,2.0,66,0.00,,OVC034,0.00,0.00,VWS V14.01,2013-02-04 01:51:00,
2013-02-03 21:01:00,23.9,14.6,29.74,ENE,74,0.0,3.0,67,0.00,,OVC034,0.00,0.00,VWS V14.01,2013-02-04 02:01:00,
2013-02-03 21:11:00,23.8,15.1,29.74,ENE,73,1.0,2.0,69,0.00,,OVC034,0.00,0.00,VWS V14.01,2013-02-04 02:11:00,
2013-02-03 21:21:00,23.5,15.2,29.74,ENE,73,1.0,1.0,70,0.00,,OVC034,0.00,0.00,VWS V14.01,2013-02-04 02:21:00,
2013-02-03 21:31:00,23.3,15.6,29.74,ENE,73,1.0,1.0,72,0.00,,OVC034,0.00,0.00,VWS V14.01,2013-02-04 02:31:00,
2013-02-03 21:41:00,23.0,16.0,29.74,ENE,73,1.0,1.0,74,0.00,,OVC036,0.00,0.00,VWS V14.01,2013-02-04 02:41:00,
2013-02-03 21:51:00,23.0,16.3,29.73,ENE,73,1.0,1.0,75,0.00,,OVC036,0.00,0.00,VWS V14.01,2013-02-04 02:51:00,
2013-02-03 22:01:00,22.9,16.2,29.72,ENE,73,1.0,1.0,75,0.00,,OVC036,0.00,0.00,VWS V14.01,2013-02-04 03:01:00,
2013-02-03 22:11:00,22.7,16.6,29.72,ENE,73,1.0,1.0,77,0.00,,OVC036,0.00,0.00,VWS V14.01,2013-02-04 03:11:00,
2013-02-03 22:21:00,22.5,16.4,29.72,ENE,73,1.0,1.0,77,0.00,,OVC036,0.00,0.00,VWS V14.01,2013-02-04 03:21:00,
2013-02-03 22:31:00,22.5,17.0,29.71,ENE,73,1.0,1.0,79,0.00,,OVC036,0.00,0.00,VWS V14.01,2013-02-04 03:31:00,
2013-02-03 22:41:00,22.4,16.9,29.71,ENE,73,1.0,1.0,79,0.00,,BKN070,0.00,0.00,VWS V14.01,2013-02-04 03:41:00,
2013-02-03 22:51:00,22.1,16.6,29.70,ENE,73,1.0,1.0,79,0.00,,BKN070,0.00,0.00,VWS V14.01,2013-02-04 03:51:00,
2013-02-03 23:01:00,21.9,16.7,29.70,ENE,73,1.0,1.0,80,0.00,,BKN070,0.00,0.00,VWS V14.01,2013-02-04 04:01:00,
2013-02-03 23:11:00,21.9,16.7,29.70,ENE,73,1.0,1.0,80,0.00,,OVC070,0.00,0.00,VWS V14.01,2013-02-04 04:11:00,
2013-02-03 23:21:00,21.6,16.7,29.69,ENE,73,1.0,1.0,81,0.00,,OVC070,0.00,0.00,VWS V14.01,2013-02-04 04:21:00,
2013-02-03 23:31:00,21.6,17.0,29.69,ENE,73,1.0,1.0,82,0.00,,OVC070,0.00,0.00,VWS V14.01,2013-02-04 04:31:00,
2013-02-03 23:41:00,21.3,16.7,29.69,ENE,73,1.0,1.0,82,0.00,,OVC070,0.00,0.00,VWS V14.01,2013-02-04 04:41:00,
2013-02-03 23:51:00,21.0,16.7,29.68,East,79,1.0,2.0,83,0.00,,OVC070,0.00,0.00,VWS V14.01,2013-02-04 04:51:00,